Whale Point, California Weather observations

Data are for observation ending at time listed.
 Day   Time    Ave.   Ave.  Ave.  Vector   Max.   Stn.    Total    Solar   Ave.  
  of    of     Air    Rel.  Wind   Wind    Wind   Baro.  Precip.   Rad.    Soil  
Year   Day     Temp.  Hum.  Speed  Dir.    Gust   Pres.                    Temp. 
2016   (PST)    F      %     mph   deg.    mph     mb.     in.     W/m2     F   
------------------------------------------------------------------------------
  39   21:40   70.9    20    9.2    58     11.5   1000.3    0.00       0    61.4
  39   21:50   71.2    19    9.3    55     13.0   1000.3    0.00       0    61.3
  39   22:00   71.0    19    8.8    59     11.7   1000.0    0.00       0    61.3
  39   22:10   70.4    19    9.0    64     11.8   1000.0    0.00       0    61.2
  39   22:20   70.2    19    9.2    65     12.0   1000.0    0.00       0    61.2
  39   22:30   70.7    18    8.3    72     10.7   1000.0    0.00       0    61.1
  39   22:40   70.8    18    6.7    72      9.4   1000.0    0.00       0    61.1
  39   22:50   70.0    20    8.4    70     11.0   1000.0    0.00       0    61.0
  39   23:00   69.5    20    8.1    64     12.1   1000.0    0.00       0    61.0
  39   23:10   70.0    20    8.7    61     12.3   1000.0    0.00       0    60.9
  39   23:20   69.2    21    9.5    65     12.3   1000.0    0.00       0    60.8
  39   23:30   69.4    21    8.3    59     11.5   1000.0    0.00       0    60.8
  39   23:40   68.9    22    7.3    68     11.2   1000.0    0.00       0    60.7
  39   23:50   68.6    22    6.8    64     10.9   1000.0    0.00       0    60.7
  40    0:00   69.2    21    2.9    88      5.7   1000.3    0.00       0    60.6
  40    0:10   69.3    21    5.7    67      9.2   1000.0    0.00       0    60.5
  40    0:20   68.2    23    6.1    68      8.5   1000.0    0.00       0    60.5
  40    0:30   68.6    22    4.1    82      6.8   1000.3    0.00       0    60.4
  40    0:40   68.8    22    5.8    65      9.1   1000.3    0.00       0    60.4
  40    0:50   68.3    22    7.4    64     10.4   1000.0    0.00       0    60.3
  40    1:00   68.4    22    7.9    65     11.5   1000.0    0.00       0    60.3
  40    1:10   68.3    22    8.1    64     11.0   1000.0    0.00       0    60.2
  40    1:20   68.2    22    8.4    69     12.3   1000.0    0.00       0    60.2
  40    1:30   68.5    22    8.3    60     11.7   1000.0    0.00       0    60.1
  40    1:40   68.5    22    9.2    56     12.8   1000.0    0.00       0    60.1
  40    1:50   69.4    21    9.1    49     12.6   1000.0    0.00       0    60.0
  40    2:00   68.5    22    7.9    52     11.6   1000.0    0.00       0    60.0
  40    2:10   67.6    23    7.7    52     10.6   999.7    0.00       0    59.9
  40    2:20   67.8    23    7.8    49     10.2   999.7    0.00       0    59.9
  40    2:30   68.9    21    5.8    54      8.6   999.7    0.00       0    59.8
  40    2:40   68.9    21    5.9    46      8.8   999.7    0.00       0    59.8
  40    2:50   70.1    19    7.0    44      9.9   999.7    0.00       0    59.7
  40    3:00   68.8    21    8.4    44     11.9   999.3    0.00       0    59.6
  40    3:10   68.5    20    9.8    50     12.3   999.3    0.00       0    59.6
  40    3:20   70.0    18    9.8    50     12.9   999.3    0.00       0    59.6
  40    3:30   70.6    16    9.7    46     12.4   999.0    0.00       0    59.5
  40    3:40   71.4    15    7.9    56     11.0   999.0    0.00       0    59.5
  40    3:50   71.8    16    1.6   190      5.1   999.3    0.00       0    59.4
  40    4:00   69.7    19    1.6    67      3.0   999.3    0.00       0    59.4
  40    4:10   70.5    17    2.0    39      3.0   999.3    0.00       0    59.4
  40    4:20   71.6    15    1.0   136      3.4   999.7    0.00       0    59.3
  40    4:30   71.2    16    2.8    64      6.4   999.7    0.00       0    59.3
  40    4:40   69.8    17    5.3    47      7.2   999.7    0.00       0    59.2
  40    4:50   70.8    16    3.2    59      6.5   999.7    0.00       0    59.2
  40    5:00   69.6    17    4.9    34      9.5   999.7    0.00       0    59.1
  40    5:10   69.6    17    6.9    37      9.6   999.7    0.00       0    59.1
  40    5:20   71.3    16    7.7    34     10.7   1000.0    0.00       0    59.0
  40    5:30   70.2    18    9.1    30     11.4   1000.0    0.00       0    59.0
  40    5:40   70.1    17    9.4    30     12.3   1000.0    0.00       0    58.9
  40    5:50   70.0    17    8.6    50     11.2   1000.0    0.00       0    58.9
  40    6:00   70.5    17    8.5    55     10.3   1000.0    0.00       0    58.9
  40    6:10   70.8    17    8.5    52     11.2   1000.0    0.00       0    58.8
  40    6:20   71.1    17    8.6    50     11.5   1000.0    0.00       0    58.8
  40    6:30   70.9    18    8.9    63     11.2   1000.0    0.00       0    58.7
  40    6:40   71.2    17    7.9    68     10.9   1000.0    0.00       0    58.7
  40    6:50   70.8    18    5.9    68     10.6   1000.3    0.00       1    58.7
  40    7:00   70.3    18    5.6    69      9.1   1000.3    0.00       3    58.6
  40    7:10   69.9    19    8.0    62     10.3   1000.7    0.00       6    58.6
  40    7:20   69.6    19    8.9    52     11.0   1000.7    0.00      10    58.6
  40    7:30   69.9    18    7.9    47      9.7   1001.0    0.00      12    58.5
  40    7:40   69.0    20    7.9    49     10.6   1001.0    0.00      15    58.5
  40    7:50   68.6    20    9.3    64     13.6   1001.0    0.00      17    58.5
  40    8:00   68.8    20    9.1    59     12.0   1001.0    0.00      19    58.4
  40    8:10   69.6    20    8.8    65     11.5   1001.0    0.00      20    58.4
  40    8:20   70.1    19    7.3    59      9.6   1001.0    0.00      22    58.4
  40    8:30   70.5    20    5.7    58      8.9   1001.0    0.00      23    58.3
  40    8:40   71.4    18    5.8    73      9.1   1001.0    0.00     113    58.3
  40    8:50   73.7    17    1.9   126      5.0   1001.0    0.00     329    58.2
  40    9:00   73.7    18    1.1   168      2.6   1001.0    0.00     362    58.2
  40    9:10   73.1    19    1.9   122      2.9   1001.4    0.00     393    58.2
  40    9:20   74.0    17    0.6    30      2.3   1001.4    0.00     426    58.2
  40    9:30   75.3    20    1.3    85      4.0   1001.4    0.00     456    58.1
  40    9:40   77.2    22    1.6   157      2.6   1001.4    0.00     485    58.1
  40    9:50   77.1    23    1.8   164      3.0   1001.4    0.00     513    58.1
  40   10:00   77.1    22    1.3   162      2.7   1001.4    0.00     540    58.1
  40   10:10   77.7    21    0.6   215      1.5   1001.4    0.00     557    58.1
  40   10:20   77.8    22    0.3   232      1.4   1001.4    0.00     591    58.0
  40   10:30   77.5    23    1.3   223      2.7   1001.4    0.00     616    58.0
  40   10:40   75.9    21    2.3   190      3.5   1001.4    0.00     630    58.0
  40   10:50   76.9    21    2.5   181      4.7   1001.4    0.00     637    58.0
  40   11:00   75.2    20    3.8   199      5.9   1001.4    0.00     661    58.0
  40   11:10   74.6    23    2.8   199      5.3   1001.4    0.00     626    58.1
  40   11:20   74.5    22    2.8   184      5.3   1001.4    0.00     603    58.1
  40   11:30   74.3    22    3.9   192      5.3   1001.0    0.00     571    58.2
  40   11:40   73.8    23    1.4   193      3.9   1000.7    0.00     451    58.2
  40   11:50   74.7    24    0.6   326      1.2   1000.3    0.00     620    58.3
  40   12:00   75.5    24    1.9   222      3.4   1000.3    0.00     828    58.3
  40   12:10   76.9    24    2.3   218      4.0   1000.0    0.00     721    58.4
  40   12:20   75.7    26    3.0   196      5.1   999.7    0.00     643    58.4
  40   12:30   77.4    25    2.9   190      5.9   999.7    0.00     691    58.5
  40   12:40   78.8    24    1.9   214      3.7   999.3    0.00     652    58.6
  40   12:50   76.6    24    2.9   224      4.7   999.3    0.00     617    58.7
  40   13:00   74.6    24    3.9   201      5.3   999.3    0.00     648    58.9
  40   13:10   75.4    26    2.9   199      4.5   999.0    0.00     542    59.0
  40   13:20   74.0    27    2.8   220      4.8   999.0    0.00     779    59.1
  40   13:30   73.2    30    4.6   217      6.3   999.0    0.00     748    59.2
  40   13:40   71.6    28    3.9   193      6.2   999.0    0.00     593    59.3
  40   13:50   72.3    27    3.7   199      5.8   999.0    0.00     654    59.5
  40   14:00   73.3    26    2.3   204      5.8   999.0    0.00     605    59.6
  40   14:10   75.6    25    0.9   333      2.0   998.6    0.00     637    59.7
  40   14:20   76.5    25    0.5   338      1.6   998.6    0.00     622    59.9
  40   14:30   78.0    24    2.0   224      4.0   998.6    0.00     569    60.0
  40   14:40   78.9    24    2.0   208      4.2   998.6    0.00     505    60.2
  40   14:50   79.6    19    2.7   225      5.0   998.6    0.00     490    60.4
  40   15:00   78.7    21    3.2   212      5.1   999.0    0.00     490    60.6
  40   15:10   77.1    23    3.1   211      5.8   999.0    0.00     481    60.7
  40   15:20   76.3    26    3.1   214      5.0   999.0    0.00     433    60.9
  40   15:30   76.7    22    1.6   205      3.7   999.0    0.00     230    61.1
  40   15:40   77.5    16    0.6   151      2.0   999.0    0.00     139    61.2
  40   15:50   77.1    18    0.5   209      2.0   999.0    0.00     124    61.4
  40   16:00   76.2    20    0.1    78      0.9   999.0    0.00     127    61.5
  40   16:10   75.8    22    0.7   191      4.6   999.3    0.00     137    61.6
  40   16:20   69.1    28   12.2   314     38.4   999.7    0.00     175    61.8
  40   16:30   65.5    30    7.6   341     22.9   1000.0    0.00     139    62.0
  40   16:40   66.2    31    4.3   114      9.6   1000.0    0.00     146    62.1
  40   16:50   66.5    33    4.0   278     11.0   1000.0    0.00     151    62.2
  40   17:00   65.8    36    3.5   300     12.2   1000.0    0.00     167    62.3
  40   17:10   66.3    34    2.9   353     13.7   1000.0    0.00     139    62.3
  40   17:20   66.7    33    5.0    16     12.6   999.7    0.00      74    62.4
  40   17:30   66.2    32   11.4    51     14.9   999.3    0.00      44    62.5
  40   17:40   66.1    33    4.5   320     10.9   999.7    0.00      21    62.5
  40   17:50   65.4    33    2.8   258      7.3   1000.0    0.00       5    62.6
  40   18:00   63.7    37    3.1   105      5.4   1000.0    0.00       1    62.6
  40   18:10   64.0    36    2.0    21      4.5   1000.0    0.00       0    62.6
  40   18:20   62.6    39    2.0    34      4.9   1000.0    0.00       0    62.6
  40   18:30   62.7    37    2.6    47      4.5   1000.0    0.00       0    62.6
  40   18:40   66.1    29    5.3    35      9.1   1000.0    0.00       0    62.6
  40   18:50   67.6    26    5.9    55      8.6   1000.0    0.00       0    62.6
  40   19:00   67.5    27    6.5    69     10.9   1000.0    0.00       0    62.6
  40   19:10   66.2    28    8.6    54     11.8   1000.0    0.00       0    62.5
  40   19:20   67.2    23    8.8    60     11.3   1000.0    0.00       0    62.5
  40   19:30   68.2    21    8.0    48     10.1   1000.0    0.00       0    62.5
  40   19:40   69.4    18    8.3    36     10.6   1000.0    0.00       0    62.4
  40   19:50   69.9    18    7.5    49     11.5   1000.0    0.00       0    62.4
  40   20:00   69.7    18    9.1    57     12.5   1000.0    0.00       0    62.3
  40   20:10   70.1    17   11.2    58     14.1   999.7    0.00       0    62.3
  40   20:20   71.1    15   11.2    57     15.1   999.7    0.00       0    62.2
  40   20:30   71.9    14   11.4    53     14.4   999.7    0.00       0    62.2
  40   20:40   72.8    14    9.8    49     12.9   999.7    0.00       0    62.1
  40   20:50   72.6    14    8.2    53     10.9   999.7    0.00       0    62.1
  40   21:00   71.7    15    4.2    41      7.5   1000.0    0.00       0    62.0
  40   21:10   69.3    19    1.2     4      2.9   1000.0    0.00       0    62.0
  40   21:20   69.6    16    4.6    55      8.4   1000.0    0.00       0    61.9
  40   21:30   71.7    14    7.0    53      9.1   1000.0    0.00       0    61.9

Return to Whale Point graphs page.


Western Regional Climate Center,wrcc@dri.edu